Latest Weather Observations for Shay Gap

IDW60801

Issued at 9:02 pm WST Wednesday 29 July 2015 (issued every 30 minutes, with the page automatically refreshed every 10 minutes)

About weather observations | Map of weather stations | Latest weather observations for WA | Other Formats
Station Details ID: 504045 Name: SHAY GAP Lat: -20.43 Lon: 120.13 Height: 173.83 m
Data from the previous 72 hours. | See also: Recent months for locations in Western Australia
Date/Time
WST
Temp
°C
App
Temp
°C
Dew
Point
Rel
Hum
%
Delta-T
°C
Wind Press
QNH
hPa
Press
MSL
hPa
Rain
since 9 am
mm
Dir
 
Spd
km/h
Gust
km/h
Spd
kts
Gust
kts
29/09:00pm 20.3 18.9 7.3 43 6.7 WNW 4 6 2 3 1020.4 1020.0 0.0
29/08:30pm 22.0 20.1 6.7 37 7.9 WNW 6 7 3 4 1020.3 1019.9 0.0
29/08:00pm 22.5 20.6 6.7 36 8.1 WNW 6 7 3 4 1020.1 1019.7 0.0
29/07:30pm 22.9 20.3 6.2 34 8.6 WNW 9 9 5 5 1019.9 1019.4 0.0
29/07:00pm 23.9 21.3 6.2 32 9.1 WNW 9 13 5 7 1019.7 1019.2 0.0
29/06:30pm 25.6 21.8 5.8 28 10.3 NW 15 24 8 13 1019.3 1018.8 0.0
29/06:00pm 27.3 24.3 6.1 26 11.1 NE 11 19 6 10 1018.8 1018.3 0.0
29/05:30pm 29.7 26.5 7.0 24 12.3 SE 13 17 7 9 1018.5 1018.0 0.0
29/05:00pm 31.2 29.0 6.3 21 13.4 S 7 13 4 7 1018.3 1017.8 0.0
29/04:30pm 31.6 28.7 6.6 21 13.6 SSE 11 17 6 9 1018.3 1017.8 0.0
29/04:00pm 32.1 28.8 6.3 20 14.0 SE 13 19 7 10 1018.2 1017.7 0.0
29/03:30pm 31.6 29.0 5.9 20 13.8 SSE 9 15 5 8 1018.2 1017.7 0.0
29/03:00pm 32.0 28.7 6.2 20 13.9 E 13 20 7 11 1018.2 1017.7 0.0
29/02:30pm 31.3 27.9 5.7 20 13.7 E 13 20 7 11 1018.4 1017.9 0.0
29/02:00pm 31.9 28.7 6.9 21 13.6 ESE 13 19 7 10 1018.5 1018.0 0.0
29/01:30pm 31.3 27.9 5.7 20 13.7 E 13 22 7 12 1018.9 1018.4 0.0
29/01:00pm 31.2 27.4 5.6 20 13.6 ENE 15 22 8 12 1019.3 1018.8 0.0
29/12:30pm 31.2 27.0 5.6 20 13.6 NE 17 24 9 13 1019.7 1019.2 0.0
29/12:00pm 31.3 26.5 5.7 20 13.6 NE 20 30 11 16 1020.3 1019.9 0.0
29/11:30am 30.7 25.4 5.2 20 13.5 NE 22 30 12 16 1020.7 1020.3 0.0
29/11:00am 29.4 23.2 4.1 20 13.0 NE 26 35 14 19 1021.0 1020.6 0.0
29/10:30am 28.7 22.1 4.2 21 12.6 ENE 28 39 15 21 1021.4 1021.0 0.0
29/10:00am 28.1 21.0 3.7 21 12.3 NE 30 35 16 19 1021.7 1021.3 0.0
29/09:30am 27.4 20.0 3.8 22 11.9 ENE 32 41 17 22 1021.7 1021.3 0.0
29/09:00am 26.4 18.5 4.2 24 11.2 ENE 35 46 19 25 1021.6 1021.2 0.0
29/08:30am 25.5 19.0 4.6 26 10.6 ENE 28 39 15 21 1021.5 1021.1 0.0
29/08:00am 24.0 19.9 6.3 32 9.1 ENE 17 24 9 13 1021.3 1020.9 0.0
29/07:30am 19.2 16.7 8.2 49 5.7 SE 11 13 6 7 1021.0 1020.6 0.0
29/07:00am 17.4 14.5 8.3 55 4.7 SE 13 15 7 8 1020.6 1020.2 0.0
29/06:30am 17.4 14.2 8.3 55 4.7 SE 15 17 8 9 1020.3 1019.9 0.0
29/06:00am 17.7 14.8 8.0 53 5.0 SE 13 13 7 7 1020.1 1019.7 0.0
29/05:30am 18.7 15.0 8.1 50 5.5 SE 17 24 9 13 1019.8 1019.3 0.0
29/05:00am 19.6 15.6 8.3 48 5.9 SE 19 24 10 13 1019.5 1019.0 0.0
29/04:30am 19.6 16.1 8.6 49 5.8 SSE 17 20 9 11 1019.5 1019.0 0.0
29/04:00am 19.9 16.3 9.8 52 5.4 SE 19 24 10 13 1019.5 1019.0 0.0
29/03:30am 18.2 15.0 10.1 59 4.3 SE 17 19 9 10 1019.6 1019.1 0.0
29/03:00am 18.5 15.7 10.1 58 4.5 SSE 15 17 8 9 1019.7 1019.2 0.0
29/02:30am 18.7 15.9 10.0 57 4.7 SSE 15 17 8 9 1019.9 1019.4 0.0
29/02:00am 19.6 16.4 9.8 53 5.3 SSE 17 17 9 9 1020.0 1019.6 0.0
29/01:30am 19.9 16.7 10.0 53 5.4 SSE 17 19 9 10 1020.2 1019.8 0.0
29/01:00am 20.1 17.0 10.2 53 5.4 SSE 17 19 9 10 1020.4 1020.0 0.0
29/12:30am 19.6 17.1 9.8 53 5.3 S 13 15 7 8 1020.7 1020.3 0.0
29/12:00am 20.3 17.9 10.1 52 5.5 S 13 13 7 7 1020.9 1020.5 0.0
 
Date/Time
WST
Temp
°C
App
Temp
°C
Dew
Point
Rel
Hum
%
Delta-T
°C
Wind Press
QNH
hPa
Press
MSL
hPa
Rain
since 9 am
mm
Dir
 
Spd
km/h
Gust
km/h
Spd
kts
Gust
kts
28/11:30pm 20.8 18.4 10.0 50 5.9 NW 13 15 7 8 1021.0 1020.6 0.0
28/11:00pm 21.0 19.3 9.9 49 6.0 NW 9 11 5 6 1021.1 1020.7 0.0
28/10:30pm 20.6 18.9 9.8 50 5.8 NW 9 11 5 6 1021.2 1020.8 0.0
28/10:00pm 22.5 21.3 9.6 44 7.0 NW 6 7 3 4 1021.1 1020.7 0.0
28/09:30pm 24.0 23.9 9.6 40 7.9 CALM 0 6 0 3 1021.1 1020.7 0.0
28/09:00pm 23.3 22.1 9.7 42 7.4 NW 6 7 3 4 1021.1 1020.7 0.0
28/08:30pm 23.2 22.0 10.3 44 7.1 NW 7 7 4 4 1021.2 1020.8 0.0
28/08:00pm 24.2 22.9 10.1 41 7.8 NW 7 9 4 5 1021.1 1020.7 0.0
28/07:30pm 24.6 22.6 10.1 40 8.1 NW 11 11 6 6 1020.7 1020.3 0.0
28/07:00pm 24.5 23.5 10.4 41 7.8 NNW 6 7 3 4 1020.5 1020.1 0.0
28/06:30pm 26.4 24.8 10.1 36 9.1 N 9 11 5 6 1020.0 1019.6 0.0
28/06:00pm 28.3 25.5 10.0 32 10.3 N 15 19 8 10 1019.6 1019.1 0.0
28/05:30pm 29.9 26.3 9.9 29 11.4 NNW 19 24 10 13 1019.3 1018.8 0.0
28/05:00pm 31.8 29.9 7.5 22 13.4 ENE 7 11 4 6 1018.8 1018.3 0.0
28/04:30pm 32.1 29.5 7.7 22 13.5 ENE 11 19 6 10 1018.6 1018.1 0.0
28/04:00pm 32.5 29.6 8.0 22 13.6 NNE 13 20 7 11 1018.4 1017.9 0.0
28/03:30pm 32.3 29.9 8.5 23 13.4 SE 11 17 6 9 1018.3 1017.8 0.0
28/03:00pm 32.9 30.3 7.7 21 14.0 ENE 11 20 6 11 1018.4 1017.9 0.0
28/02:30pm 32.8 30.3 8.3 22 13.8 NNE 11 17 6 9 1018.6 1018.1 0.0
28/02:00pm 32.0 28.4 8.3 23 13.2 ENE 17 26 9 14 1019.0 1018.5 0.0
28/01:30pm 32.0 28.4 8.3 23 13.3 NNE 17 26 9 14 1019.3 1018.8 0.0
28/01:00pm 32.0 28.0 8.3 23 13.2 NE 19 30 10 16 1019.8 1019.3 0.0
28/12:30pm 31.0 26.8 8.1 24 12.7 ENE 20 32 11 17 1020.2 1019.8 0.0
28/12:00pm 30.6 25.7 7.1 23 12.8 ENE 22 35 12 19 1020.9 1020.5 0.0
28/11:30am 29.9 24.4 7.7 25 12.2 ENE 26 35 14 19 1021.5 1021.1 0.0
28/11:00am 29.2 23.2 7.2 25 11.9 ENE 28 39 15 21 1021.8 1021.4 0.0
28/10:30am 28.3 22.3 7.0 26 11.4 ENE 28 39 15 21 1022.0 1021.6 0.0
28/10:00am 27.6 20.8 6.9 27 11.0 ENE 32 41 17 22 1022.4 1022.0 0.0
28/09:30am 25.4 20.3 7.5 32 9.5 E 24 30 13 16 1022.9 1022.4 0.0
28/09:00am 23.1 17.9 7.2 36 8.3 E 24 35 13 19 1023.0 1022.5 0.0
28/08:30am 21.7 16.1 7.2 39 7.5 E 26 35 14 19 1022.6 1022.2 0.0
28/08:00am 20.3 15.1 7.3 43 6.7 ESE 24 33 13 18 1022.5 1022.1 0.0
28/07:30am 18.8 13.6 7.3 47 5.9 SE 24 32 13 17 1022.2 1021.8 0.0
28/07:00am 17.5 13.0 7.0 50 5.3 SE 20 28 11 15 1022.1 1021.7 0.0
28/06:30am 17.2 11.9 6.7 50 5.2 SE 24 32 13 17 1021.8 1021.4 0.0
28/06:00am 17.4 12.5 6.9 50 5.2 SE 22 30 12 16 1021.4 1021.0 0.0
28/05:30am 17.4 12.5 6.9 50 5.3 SE 22 28 12 15 1021.2 1020.8 0.0
28/05:00am 17.5 12.9 6.7 49 5.4 SE 20 28 11 15 1020.9 1020.5 0.0
28/04:30am 17.7 12.8 6.9 49 5.4 SE 22 26 12 14 1020.8 1020.4 0.0
28/04:00am 17.9 13.3 6.7 48 5.6 SE 20 28 11 15 1020.9 1020.5 0.0
28/03:30am 18.3 13.4 6.8 47 5.8 SE 22 28 12 15 1020.8 1020.4 0.0
28/03:00am 18.7 13.8 6.9 46 6.0 SE 22 28 12 15 1020.9 1020.5 0.0
28/02:30am 19.0 14.1 7.1 46 6.1 SE 22 28 12 15 1020.9 1020.5 0.0
28/02:00am 19.2 14.3 7.0 45 6.2 SE 22 26 12 14 1021.0 1020.6 0.0
28/01:30am 19.8 14.9 6.9 43 6.6 SE 22 28 12 15 1021.3 1020.9 0.0
28/01:00am 20.2 15.7 6.9 42 6.8 SE 20 26 11 14 1021.6 1021.2 0.0
28/12:30am 20.7 15.8 7.0 41 7.0 SE 22 28 12 15 1021.7 1021.3 0.0
28/12:00am 21.0 16.5 6.9 40 7.2 SE 20 26 11 14 1021.8 1021.4 0.0
 
Date/Time
WST
Temp
°C
App
Temp
°C
Dew
Point
Rel
Hum
%
Delta-T
°C
Wind Press
QNH
hPa
Press
MSL
hPa
Rain
since 9 am
mm
Dir
 
Spd
km/h
Gust
km/h
Spd
kts
Gust
kts
27/11:30pm 21.3 16.8 6.8 39 7.4 SE 20 24 11 13 1021.8 1021.4 0.0
27/11:00pm 21.7 17.2 6.8 38 7.6 SE 20 26 11 14 1021.9 1021.5 0.0
27/10:30pm 22.0 17.7 7.0 38 7.8 SE 19 26 10 14 1022.0 1021.6 0.0
27/10:00pm 22.0 17.4 6.7 37 7.8 SSE 20 24 11 13 1021.9 1021.5 0.0
27/09:30pm 22.1 17.7 6.7 37 7.9 SSE 19 22 10 12 1022.0 1021.6 0.0
27/09:00pm 21.7 17.7 6.8 38 7.6 SSE 17 19 9 10 1021.9 1021.5 0.0
27/08:30pm 21.7 17.6 6.4 37 7.8 SSE 17 20 9 11 1021.8 1021.4 0.0
27/08:00pm 22.1 18.4 6.3 36 8.1 SSE 15 19 8 10 1021.6 1021.2 0.0
27/07:30pm 22.8 18.8 6.6 35 8.4 SE 17 19 9 10 1021.4 1021.0 0.0
27/07:00pm 23.1 19.0 6.4 34 8.6 SSE 17 17 9 9 1021.0 1020.6 0.0
27/06:30pm 22.7 19.4 6.5 35 8.3 SE 13 15 7 8 1020.8 1020.4 0.0
27/06:00pm 24.7 21.0 6.4 31 9.5 SE 15 17 8 9 1020.6 1020.2 0.0
27/05:30pm 26.6 22.2 6.6 28 10.6 ESE 19 26 10 14 1020.3 1019.9 0.0
27/05:00pm 27.6 22.6 6.4 26 11.2 SE 22 30 12 16 1020.0 1019.6 0.0
27/04:30pm 28.4 23.0 6.5 25 11.7 SE 24 32 13 17 1019.8 1019.3 0.0
27/04:00pm 28.3 22.9 6.4 25 11.6 SE 24 32 13 17 1019.7 1019.2 0.0
27/03:30pm 28.5 22.4 6.6 25 11.7 SE 28 37 15 20 1019.8 1019.3 0.0
27/03:00pm 28.1 22.3 6.2 25 11.6 SE 26 35 14 19 1019.9 1019.4 0.0
27/02:30pm 28.7 23.1 7.3 26 11.6 SE 26 35 14 19 1019.9 1019.4 0.0
27/02:00pm 27.5 21.4 6.8 27 11.0 ESE 28 37 15 20 1020.1 1019.7 0.0
27/01:30pm 27.0 21.0 6.9 28 10.7 SE 28 35 15 19 1020.8 1020.4 0.0
27/01:00pm 26.8 20.9 7.3 29 10.4 ESE 28 35 15 19 1021.2 1020.8 0.0
27/12:30pm 26.2 20.1 6.8 29 10.3 ESE 28 39 15 21 1021.6 1021.2 0.0
27/12:00pm 25.1 18.3 6.8 31 9.6 ESE 32 43 17 23 1022.2 1021.8 0.0
27/11:30am 24.3 17.2 6.6 32 9.2 ESE 33 43 18 23 1022.9 1022.4 0.0
27/11:00am 23.4 16.3 6.2 33 8.8 ESE 33 46 18 25 1023.3 1022.8 0.0
27/10:30am 22.8 14.5 6.1 34 8.5 ESE 39 52 21 28 1023.4 1022.9 0.0
27/10:00am 21.7 13.0 6.0 36 7.9 ESE 41 54 22 29 1023.7 1023.2 0.0
27/09:30am 21.1 12.0 6.6 39 7.4 ESE 44 56 24 30 1024.0 1023.5 0.0
27/09:00am 19.7 10.4 6.1 41 6.8 ESE 44 61 24 33 1023.9 1023.4 0.0
27/08:47am 19.4 10.4 6.2 42 6.6 ESE 43 61 23 33 1023.7 1023.2 0.0
27/08:30am 18.8 9.8 6.3 44 6.3 ESE 43 59 23 32 1023.8 1023.3 0.0
27/08:00am 17.7 9.4 5.9 46 5.8 ESE 39 54 21 29 1023.7 1023.2 0.0
27/07:30am 16.8 9.2 5.7 48 5.4 SE 35 46 19 25 1023.3 1022.8 0.0
27/07:00am 16.1 8.5 5.7 50 5.0 SE 35 46 19 25 1023.2 1022.7 0.0
27/06:30am 15.9 7.9 5.8 51 4.9 SE 37 50 20 27 1023.0 1022.5 0.0
27/06:00am 16.0 8.0 5.9 51 4.9 SE 37 48 20 26 1022.8 1022.3 0.0
27/05:30am 16.4 8.8 6.0 50 5.1 SE 35 48 19 26 1022.6 1022.2 0.0
27/05:00am 16.6 9.1 6.1 50 5.1 SE 35 50 19 27 1022.3 1021.9 0.0
27/04:30am 16.7 9.1 5.9 49 5.3 SE 35 46 19 25 1022.2 1021.8 0.0
27/04:00am 17.1 9.2 6.0 48 5.4 SE 37 48 20 26 1022.2 1021.8 0.0
27/03:30am 17.2 9.3 6.4 49 5.4 SE 37 50 20 27 1022.3 1021.9 0.0
27/03:00am 17.5 10.1 6.7 49 5.4 SE 35 44 19 24 1022.1 1021.7 0.0
27/02:30am 17.6 10.2 6.8 49 5.4 SE 35 46 19 25 1022.2 1021.8 0.0
27/02:00am 17.9 10.1 6.7 48 5.6 SE 37 46 20 25 1022.3 1021.9 0.0
27/01:30am 18.3 11.3 6.8 47 5.8 SE 33 50 18 27 1022.8 1022.3 0.0
27/01:00am 18.8 11.9 7.3 47 5.8 SE 33 44 18 24 1023.0 1022.5 0.0
27/12:30am 19.1 12.2 7.2 46 6.1 SE 33 44 18 24 1023.2 1022.7 0.0
27/12:00am 19.3 13.4 7.4 46 6.1 SE 28 39 15 21 1023.4 1022.9 0.0
 
Date/Time
WST
Temp
°C
App
Temp
°C
Dew
Point
Rel
Hum
%
Delta-T
°C
Wind Press
QNH
hPa
Press
MSL
hPa
Rain
since 9 am
mm
Dir
 
Spd
km/h
Gust
km/h
Spd
kts
Gust
kts
26/11:30pm 19.5 13.6 7.6 46 6.1 SE 28 41 15 22 1023.5 1023.0 0.0
26/11:00pm 20.1 14.3 7.8 45 6.4 SE 28 39 15 21 1023.7 1023.2 0.0
26/10:30pm 20.2 14.4 7.9 45 6.4 SE 28 37 15 20 1023.7 1023.2 0.0
26/10:00pm 20.3 14.9 8.0 45 6.4 SE 26 35 14 19 1023.7 1023.2 0.0
26/09:30pm 20.8 15.0 8.1 44 6.7 SE 28 37 15 20 1023.6 1023.1 0.0

Other Formats:

Comma delimited format used in spreadsheet applications
http://www.bom.gov.au/fwo/IDW60801/IDW60801.99311.axf

JavaScript Object Notation format (JSON) in row-major order
http://www.bom.gov.au/fwo/IDW60801/IDW60801.99311.json